sensor_id;sensor_type;location;lat;lon;timestamp;P1;durP1;ratioP1;P2;durP2;ratioP2
60494;SDS011;46342;49.046;11.920;2024-01-27T00:00:54;1.35;;;0.80;;
60494;SDS011;46342;49.046;11.920;2024-01-27T00:03:19;2.25;;;1.00;;
60494;SDS011;46342;49.046;11.920;2024-01-27T00:05:45;1.52;;;0.95;;
60494;SDS011;46342;49.046;11.920;2024-01-27T00:08:10;0.85;;;0.82;;
60494;SDS011;46342;49.046;11.920;2024-01-27T00:10:36;2.67;;;0.90;;
60494;SDS011;46342;49.046;11.920;2024-01-27T00:13:01;8.13;;;1.13;;
60494;SDS011;46342;49.046;11.920;2024-01-27T00:15:27;2.80;;;1.15;;
60494;SDS011;46342;49.046;11.920;2024-01-27T00:17:53;2.15;;;1.10;;
60494;SDS011;46342;49.046;11.920;2024-01-27T00:20:18;2.17;;;0.95;;
60494;SDS011;46342;49.046;11.920;2024-01-27T00:22:44;1.27;;;0.90;;
60494;SDS011;46342;49.046;11.920;2024-01-27T00:25:09;1.40;;;1.13;;
60494;SDS011;46342;49.046;11.920;2024-01-27T00:27:35;1.42;;;0.90;;
60494;SDS011;46342;49.046;11.920;2024-01-27T00:30:01;1.38;;;1.00;;
60494;SDS011;46342;49.046;11.920;2024-01-27T00:32:26;4.80;;;1.40;;
60494;SDS011;46342;49.046;11.920;2024-01-27T00:34:52;1.30;;;0.88;;
60494;SDS011;46342;49.046;11.920;2024-01-27T00:37:17;1.58;;;0.85;;
60494;SDS011;46342;49.046;11.920;2024-01-27T00:39:43;1.77;;;1.10;;
60494;SDS011;46342;49.046;11.920;2024-01-27T00:42:10;3.40;;;1.20;;
60494;SDS011;46342;49.046;11.920;2024-01-27T00:44:35;1.90;;;1.00;;
60494;SDS011;46342;49.046;11.920;2024-01-27T00:47:02;1.83;;;0.93;;
60494;SDS011;46342;49.046;11.920;2024-01-27T00:49:28;1.00;;;0.90;;
60494;SDS011;46342;49.046;11.920;2024-01-27T00:51:54;1.20;;;0.82;;
60494;SDS011;46342;49.046;11.920;2024-01-27T00:54:19;1.30;;;0.90;;
60494;SDS011;46342;49.046;11.920;2024-01-27T00:56:45;1.15;;;0.98;;
60494;SDS011;46342;49.046;11.920;2024-01-27T00:59:10;2.03;;;0.90;;
60494;SDS011;46342;49.046;11.920;2024-01-27T01:01:36;1.20;;;0.80;;
60494;SDS011;46342;49.046;11.920;2024-01-27T01:04:01;2.35;;;1.00;;
60494;SDS011;46342;49.046;11.920;2024-01-27T01:06:27;1.95;;;1.15;;
60494;SDS011;46342;49.046;11.920;2024-01-27T01:08:53;1.00;;;0.90;;
60494;SDS011;46342;49.046;11.920;2024-01-27T01:11:18;1.33;;;0.95;;
60494;SDS011;46342;49.046;11.920;2024-01-27T01:13:44;1.50;;;0.95;;
60494;SDS011;46342;49.046;11.920;2024-01-27T01:16:09;2.30;;;1.02;;
60494;SDS011;46342;49.046;11.920;2024-01-27T01:18:35;1.90;;;0.98;;
60494;SDS011;46342;49.046;11.920;2024-01-27T01:21:01;2.25;;;0.98;;
60494;SDS011;46342;49.046;11.920;2024-01-27T01:23:26;3.72;;;0.98;;
60494;SDS011;46342;49.046;11.920;2024-01-27T01:25:52;1.25;;;1.00;;
60494;SDS011;46342;49.046;11.920;2024-01-27T01:28:17;1.45;;;1.00;;
60494;SDS011;46342;49.046;11.920;2024-01-27T01:30:43;2.55;;;1.20;;
60494;SDS011;46342;49.046;11.920;2024-01-27T01:33:10;2.58;;;1.20;;
60494;SDS011;46342;49.046;11.920;2024-01-27T01:35:35;1.95;;;0.90;;
60494;SDS011;46342;49.046;11.920;2024-01-27T01:38:02;2.10;;;1.05;;
60494;SDS011;46342;49.046;11.920;2024-01-27T01:40:28;3.75;;;1.00;;
60494;SDS011;46342;49.046;11.920;2024-01-27T01:42:54;2.10;;;0.90;;
60494;SDS011;46342;49.046;11.920;2024-01-27T01:45:20;1.25;;;1.00;;
60494;SDS011;46342;49.046;11.920;2024-01-27T01:47:45;3.83;;;1.00;;
60494;SDS011;46342;49.046;11.920;2024-01-27T01:50:11;1.23;;;0.90;;
60494;SDS011;46342;49.046;11.920;2024-01-27T01:52:37;1.83;;;0.93;;
60494;SDS011;46342;49.046;11.920;2024-01-27T01:55:04;1.10;;;0.90;;
60494;SDS011;46342;49.046;11.920;2024-01-27T01:57:30;3.03;;;0.93;;
60494;SDS011;46342;49.046;11.920;2024-01-27T01:59:56;2.47;;;1.20;;
60494;SDS011;46342;49.046;11.920;2024-01-27T02:02:22;1.60;;;1.00;;
60494;SDS011;46342;49.046;11.920;2024-01-27T02:04:47;1.90;;;1.05;;
60494;SDS011;46342;49.046;11.920;2024-01-27T02:07:13;2.47;;;1.15;;
60494;SDS011;46342;49.046;11.920;2024-01-27T02:09:39;3.28;;;0.88;;
60494;SDS011;46342;49.046;11.920;2024-01-27T02:12:04;3.08;;;1.10;;
60494;SDS011;46342;49.046;11.920;2024-01-27T02:14:30;1.65;;;1.10;;
60494;SDS011;46342;49.046;11.920;2024-01-27T02:16:56;3.13;;;1.20;;
60494;SDS011;46342;49.046;11.920;2024-01-27T02:19:22;3.60;;;1.30;;
60494;SDS011;46342;49.046;11.920;2024-01-27T02:21:48;1.48;;;0.90;;
60494;SDS011;46342;49.046;11.920;2024-01-27T02:24:14;1.65;;;1.10;;
60494;SDS011;46342;49.046;11.920;2024-01-27T02:26:40;2.80;;;1.15;;
60494;SDS011;46342;49.046;11.920;2024-01-27T02:29:06;1.92;;;1.10;;
60494;SDS011;46342;49.046;11.920;2024-01-27T02:31:31;1.50;;;0.90;;
60494;SDS011;46342;49.046;11.920;2024-01-27T02:33:57;1.40;;;1.00;;
60494;SDS011;46342;49.046;11.920;2024-01-27T02:36:22;1.77;;;0.90;;
60494;SDS011;46342;49.046;11.920;2024-01-27T02:38:48;2.33;;;1.40;;
60494;SDS011;46342;49.046;11.920;2024-01-27T02:41:14;1.85;;;1.05;;
60494;SDS011;46342;49.046;11.920;2024-01-27T02:43:39;3.38;;;1.13;;
60494;SDS011;46342;49.046;11.920;2024-01-27T02:46:06;1.30;;;0.90;;
60494;SDS011;46342;49.046;11.920;2024-01-27T02:48:35;1.30;;;0.98;;
60494;SDS011;46342;49.046;11.920;2024-01-27T02:51:03;2.33;;;1.00;;
60494;SDS011;46342;49.046;11.920;2024-01-27T02:53:29;1.15;;;1.00;;
60494;SDS011;46342;49.046;11.920;2024-01-27T02:55:55;4.03;;;1.20;;
60494;SDS011;46342;49.046;11.920;2024-01-27T02:58:21;1.88;;;1.15;;
60494;SDS011;46342;49.046;11.920;2024-01-27T03:00:47;1.25;;;1.02;;
60494;SDS011;46342;49.046;11.920;2024-01-27T03:03:13;1.88;;;1.17;;
60494;SDS011;46342;49.046;11.920;2024-01-27T03:05:38;2.67;;;1.10;;
60494;SDS011;46342;49.046;11.920;2024-01-27T03:08:04;2.22;;;1.20;;
60494;SDS011;46342;49.046;11.920;2024-01-27T03:10:30;9.85;;;1.63;;
60494;SDS011;46342;49.046;11.920;2024-01-27T03:12:56;1.83;;;1.13;;
60494;SDS011;46342;49.046;11.920;2024-01-27T03:15:22;1.75;;;1.30;;
60494;SDS011;46342;49.046;11.920;2024-01-27T03:17:47;1.70;;;1.05;;
60494;SDS011;46342;49.046;11.920;2024-01-27T03:20:13;2.58;;;1.20;;
60494;SDS011;46342;49.046;11.920;2024-01-27T03:22:38;1.08;;;0.93;;
60494;SDS011;46342;49.046;11.920;2024-01-27T03:25:05;1.77;;;1.08;;
60494;SDS011;46342;49.046;11.920;2024-01-27T03:27:32;3.88;;;1.52;;
60494;SDS011;46342;49.046;11.920;2024-01-27T03:30:01;3.53;;;1.40;;
60494;SDS011;46342;49.046;11.920;2024-01-27T03:32:28;2.85;;;1.33;;
60494;SDS011;46342;49.046;11.920;2024-01-27T03:37:23;2.67;;;1.23;;
60494;SDS011;46342;49.046;11.920;2024-01-27T03:39:48;4.00;;;1.38;;
60494;SDS011;46342;49.046;11.920;2024-01-27T03:42:14;2.53;;;1.40;;
60494;SDS011;46342;49.046;11.920;2024-01-27T03:44:39;2.17;;;0.90;;
60494;SDS011;46342;49.046;11.920;2024-01-27T03:47:05;1.35;;;1.10;;
60494;SDS011;46342;49.046;11.920;2024-01-27T03:49:30;2.13;;;1.15;;
60494;SDS011;46342;49.046;11.920;2024-01-27T03:51:56;2.33;;;1.40;;
60494;SDS011;46342;49.046;11.920;2024-01-27T03:54:21;3.17;;;1.25;;
60494;SDS011;46342;49.046;11.920;2024-01-27T03:56:47;3.42;;;1.30;;
60494;SDS011;46342;49.046;11.920;2024-01-27T03:59:12;3.83;;;1.33;;
60494;SDS011;46342;49.046;11.920;2024-01-27T04:01:38;3.90;;;1.33;;
60494;SDS011;46342;49.046;11.920;2024-01-27T04:04:03;2.47;;;1.40;;
60494;SDS011;46342;49.046;11.920;2024-01-27T04:06:35;1.88;;;1.27;;
60494;SDS011;46342;49.046;11.920;2024-01-27T04:09:01;2.70;;;0.95;;
60494;SDS011;46342;49.046;11.920;2024-01-27T04:11:27;1.45;;;1.02;;
60494;SDS011;46342;49.046;11.920;2024-01-27T04:13:52;3.75;;;1.27;;
60494;SDS011;46342;49.046;11.920;2024-01-27T04:16:18;5.85;;;1.40;;
60494;SDS011;46342;49.046;11.920;2024-01-27T04:18:44;3.72;;;1.35;;
60494;SDS011;46342;49.046;11.920;2024-01-27T04:21:09;3.95;;;1.50;;
60494;SDS011;46342;49.046;11.920;2024-01-27T04:23:35;6.68;;;1.90;;
60494;SDS011;46342;49.046;11.920;2024-01-27T04:26:00;3.25;;;1.40;;
60494;SDS011;46342;49.046;11.920;2024-01-27T04:28:27;1.88;;;1.30;;
60494;SDS011;46342;49.046;11.920;2024-01-27T04:30:54;4.10;;;1.40;;
60494;SDS011;46342;49.046;11.920;2024-01-27T04:33:20;4.38;;;1.50;;
60494;SDS011;46342;49.046;11.920;2024-01-27T04:35:46;2.78;;;1.10;;
60494;SDS011;46342;49.046;11.920;2024-01-27T04:38:11;3.85;;;1.30;;
60494;SDS011;46342;49.046;11.920;2024-01-27T04:40:37;2.30;;;1.23;;
60494;SDS011;46342;49.046;11.920;2024-01-27T04:43:03;1.52;;;1.10;;
60494;SDS011;46342;49.046;11.920;2024-01-27T04:45:28;2.08;;;1.25;;
60494;SDS011;46342;49.046;11.920;2024-01-27T04:47:54;5.28;;;1.38;;
60494;SDS011;46342;49.046;11.920;2024-01-27T04:50:20;3.75;;;1.80;;
60494;SDS011;46342;49.046;11.920;2024-01-27T04:52:45;2.35;;;1.98;;
60494;SDS011;46342;49.046;11.920;2024-01-27T04:55:11;5.85;;;1.58;;
60494;SDS011;46342;49.046;11.920;2024-01-27T04:57:37;2.95;;;1.40;;
60494;SDS011;46342;49.046;11.920;2024-01-27T05:00:03;3.58;;;1.30;;
60494;SDS011;46342;49.046;11.920;2024-01-27T05:02:32;1.30;;;1.13;;
60494;SDS011;46342;49.046;11.920;2024-01-27T05:04:58;2.88;;;1.40;;
60494;SDS011;46342;49.046;11.920;2024-01-27T05:07:24;2.50;;;1.20;;
60494;SDS011;46342;49.046;11.920;2024-01-27T05:09:49;4.65;;;1.67;;
60494;SDS011;46342;49.046;11.920;2024-01-27T05:12:15;3.85;;;1.40;;
60494;SDS011;46342;49.046;11.920;2024-01-27T05:14:44;3.20;;;1.38;;
60494;SDS011;46342;49.046;11.920;2024-01-27T05:17:10;2.83;;;1.50;;
60494;SDS011;46342;49.046;11.920;2024-01-27T05:19:36;2.60;;;1.30;;
60494;SDS011;46342;49.046;11.920;2024-01-27T05:22:01;4.35;;;1.40;;
60494;SDS011;46342;49.046;11.920;2024-01-27T05:24:27;2.90;;;1.42;;
60494;SDS011;46342;49.046;11.920;2024-01-27T05:26:53;2.70;;;1.73;;
60494;SDS011;46342;49.046;11.920;2024-01-27T05:29:18;3.47;;;1.65;;
60494;SDS011;46342;49.046;11.920;2024-01-27T05:31:44;3.97;;;1.73;;
60494;SDS011;46342;49.046;11.920;2024-01-27T05:34:10;3.08;;;1.70;;
60494;SDS011;46342;49.046;11.920;2024-01-27T05:36:36;4.68;;;1.60;;
60494;SDS011;46342;49.046;11.920;2024-01-27T05:39:01;3.63;;;1.58;;
60494;SDS011;46342;49.046;11.920;2024-01-27T05:41:29;2.00;;;1.33;;
60494;SDS011;46342;49.046;11.920;2024-01-27T05:43:55;5.63;;;1.60;;
60494;SDS011;46342;49.046;11.920;2024-01-27T05:46:24;3.58;;;1.50;;
60494;SDS011;46342;49.046;11.920;2024-01-27T05:48:50;3.75;;;1.50;;
60494;SDS011;46342;49.046;11.920;2024-01-27T05:53:48;2.15;;;1.40;;
60494;SDS011;46342;49.046;11.920;2024-01-27T05:56:14;5.57;;;1.67;;
60494;SDS011;46342;49.046;11.920;2024-01-27T05:58:39;3.90;;;1.50;;
60494;SDS011;46342;49.046;11.920;2024-01-27T06:01:05;6.55;;;1.38;;
60494;SDS011;46342;49.046;11.920;2024-01-27T06:03:31;4.82;;;1.30;;
60494;SDS011;46342;49.046;11.920;2024-01-27T06:05:57;2.97;;;1.50;;
60494;SDS011;46342;49.046;11.920;2024-01-27T06:08:23;4.93;;;1.65;;
60494;SDS011;46342;49.046;11.920;2024-01-27T06:10:48;6.53;;;1.80;;
60494;SDS011;46342;49.046;11.920;2024-01-27T06:13:14;2.15;;;1.23;;
60494;SDS011;46342;49.046;11.920;2024-01-27T06:15:39;3.75;;;1.58;;
60494;SDS011;46342;49.046;11.920;2024-01-27T06:18:05;2.15;;;1.50;;
60494;SDS011;46342;49.046;11.920;2024-01-27T06:20:31;4.07;;;1.90;;
60494;SDS011;46342;49.046;11.920;2024-01-27T06:22:56;3.58;;;1.80;;
60494;SDS011;46342;49.046;11.920;2024-01-27T06:25:22;3.25;;;1.90;;
60494;SDS011;46342;49.046;11.920;2024-01-27T06:27:49;2.10;;;1.60;;
60494;SDS011;46342;49.046;11.920;2024-01-27T06:30:15;3.78;;;1.52;;
60494;SDS011;46342;49.046;11.920;2024-01-27T06:32:41;3.33;;;1.60;;
60494;SDS011;46342;49.046;11.920;2024-01-27T06:35:07;9.82;;;1.95;;
60494;SDS011;46342;49.046;11.920;2024-01-27T06:37:32;4.30;;;1.75;;
60494;SDS011;46342;49.046;11.920;2024-01-27T06:39:58;4.40;;;1.52;;
60494;SDS011;46342;49.046;11.920;2024-01-27T06:42:23;7.93;;;2.08;;
60494;SDS011;46342;49.046;11.920;2024-01-27T06:44:49;5.95;;;2.30;;
60494;SDS011;46342;49.046;11.920;2024-01-27T06:47:15;3.60;;;2.03;;
60494;SDS011;46342;49.046;11.920;2024-01-27T06:49:41;3.60;;;2.38;;
60494;SDS011;46342;49.046;11.920;2024-01-27T06:52:06;3.92;;;1.88;;
60494;SDS011;46342;49.046;11.920;2024-01-27T06:54:32;2.53;;;1.85;;
60494;SDS011;46342;49.046;11.920;2024-01-27T06:57:00;4.28;;;1.85;;
60494;SDS011;46342;49.046;11.920;2024-01-27T06:59:26;6.03;;;2.05;;
60494;SDS011;46342;49.046;11.920;2024-01-27T07:01:52;3.50;;;1.63;;
60494;SDS011;46342;49.046;11.920;2024-01-27T07:04:17;4.22;;;1.75;;
60494;SDS011;46342;49.046;11.920;2024-01-27T07:06:43;2.30;;;1.60;;
60494;SDS011;46342;49.046;11.920;2024-01-27T07:09:09;3.78;;;2.00;;
60494;SDS011;46342;49.046;11.920;2024-01-27T07:11:35;3.05;;;1.88;;
60494;SDS011;46342;49.046;11.920;2024-01-27T07:14:02;3.50;;;1.55;;
60494;SDS011;46342;49.046;11.920;2024-01-27T07:16:28;2.70;;;1.75;;
60494;SDS011;46342;49.046;11.920;2024-01-27T07:18:54;7.53;;;1.92;;
60494;SDS011;46342;49.046;11.920;2024-01-27T07:21:19;3.47;;;1.77;;
60494;SDS011;46342;49.046;11.920;2024-01-27T07:23:45;3.92;;;1.63;;
60494;SDS011;46342;49.046;11.920;2024-01-27T07:26:10;3.10;;;1.90;;
60494;SDS011;46342;49.046;11.920;2024-01-27T07:28:37;4.55;;;1.75;;
60494;SDS011;46342;49.046;11.920;2024-01-27T07:31:02;3.00;;;1.77;;
60494;SDS011;46342;49.046;11.920;2024-01-27T07:33:29;4.85;;;2.20;;
60494;SDS011;46342;49.046;11.920;2024-01-27T07:35:54;8.40;;;2.03;;
60494;SDS011;46342;49.046;11.920;2024-01-27T07:38:21;6.05;;;2.25;;
60494;SDS011;46342;49.046;11.920;2024-01-27T07:40:47;4.47;;;2.10;;
60494;SDS011;46342;49.046;11.920;2024-01-27T07:43:13;5.18;;;2.20;;
60494;SDS011;46342;49.046;11.920;2024-01-27T07:45:38;5.13;;;2.08;;
60494;SDS011;46342;49.046;11.920;2024-01-27T07:48:04;4.40;;;1.90;;
60494;SDS011;46342;49.046;11.920;2024-01-27T07:50:30;3.55;;;2.00;;
60494;SDS011;46342;49.046;11.920;2024-01-27T07:52:56;4.50;;;2.05;;
60494;SDS011;46342;49.046;11.920;2024-01-27T07:55:22;4.38;;;1.77;;
60494;SDS011;46342;49.046;11.920;2024-01-27T07:57:47;5.55;;;2.25;;
60494;SDS011;46342;49.046;11.920;2024-01-27T08:00:13;5.18;;;2.00;;
60494;SDS011;46342;49.046;11.920;2024-01-27T08:02:39;5.03;;;2.13;;
60494;SDS011;46342;49.046;11.920;2024-01-27T08:05:04;6.20;;;2.33;;
60494;SDS011;46342;49.046;11.920;2024-01-27T08:07:31;6.43;;;2.75;;
60494;SDS011;46342;49.046;11.920;2024-01-27T08:09:57;6.25;;;2.28;;
60494;SDS011;46342;49.046;11.920;2024-01-27T08:12:22;3.17;;;2.38;;
60494;SDS011;46342;49.046;11.920;2024-01-27T08:14:48;5.35;;;2.13;;
60494;SDS011;46342;49.046;11.920;2024-01-27T08:17:14;9.05;;;2.08;;
60494;SDS011;46342;49.046;11.920;2024-01-27T08:19:39;3.25;;;1.80;;
60494;SDS011;46342;49.046;11.920;2024-01-27T08:22:05;4.07;;;1.77;;
60494;SDS011;46342;49.046;11.920;2024-01-27T08:24:31;8.35;;;2.13;;
60494;SDS011;46342;49.046;11.920;2024-01-27T08:26:56;5.63;;;1.95;;
60494;SDS011;46342;49.046;11.920;2024-01-27T08:29:23;4.30;;;1.98;;
60494;SDS011;46342;49.046;11.920;2024-01-27T08:31:48;4.13;;;2.20;;
60494;SDS011;46342;49.046;11.920;2024-01-27T08:34:14;4.18;;;1.83;;
60494;SDS011;46342;49.046;11.920;2024-01-27T08:36:39;7.70;;;2.10;;
60494;SDS011;46342;49.046;11.920;2024-01-27T08:39:05;3.58;;;1.70;;
60494;SDS011;46342;49.046;11.920;2024-01-27T08:41:34;6.78;;;2.42;;
60494;SDS011;46342;49.046;11.920;2024-01-27T08:43:59;6.70;;;2.35;;
60494;SDS011;46342;49.046;11.920;2024-01-27T08:46:25;4.63;;;2.17;;
60494;SDS011;46342;49.046;11.920;2024-01-27T08:48:51;4.50;;;1.80;;
60494;SDS011;46342;49.046;11.920;2024-01-27T08:51:16;9.93;;;3.13;;
60494;SDS011;46342;49.046;11.920;2024-01-27T08:53:43;7.20;;;2.15;;
60494;SDS011;46342;49.046;11.920;2024-01-27T08:56:13;5.95;;;2.15;;
60494;SDS011;46342;49.046;11.920;2024-01-27T08:58:40;3.65;;;1.58;;
60494;SDS011;46342;49.046;11.920;2024-01-27T09:01:05;5.38;;;2.30;;
60494;SDS011;46342;49.046;11.920;2024-01-27T09:03:33;3.58;;;2.22;;
60494;SDS011;46342;49.046;11.920;2024-01-27T09:05:58;5.50;;;2.28;;
60494;SDS011;46342;49.046;11.920;2024-01-27T09:08:24;5.53;;;2.70;;
60494;SDS011;46342;49.046;11.920;2024-01-27T09:10:49;3.75;;;1.95;;
60494;SDS011;46342;49.046;11.920;2024-01-27T09:13:15;4.22;;;2.00;;
60494;SDS011;46342;49.046;11.920;2024-01-27T09:15:41;3.67;;;2.00;;
60494;SDS011;46342;49.046;11.920;2024-01-27T09:18:06;3.17;;;1.73;;
60494;SDS011;46342;49.046;11.920;2024-01-27T09:20:32;5.28;;;2.10;;
60494;SDS011;46342;49.046;11.920;2024-01-27T09:22:57;5.13;;;1.85;;
60494;SDS011;46342;49.046;11.920;2024-01-27T09:25:23;5.28;;;2.05;;
60494;SDS011;46342;49.046;11.920;2024-01-27T09:27:50;5.20;;;2.45;;
60494;SDS011;46342;49.046;11.920;2024-01-27T09:30:17;9.85;;;2.20;;
60494;SDS011;46342;49.046;11.920;2024-01-27T09:32:43;5.78;;;2.60;;
60494;SDS011;46342;49.046;11.920;2024-01-27T09:35:08;7.30;;;2.55;;
60494;SDS011;46342;49.046;11.920;2024-01-27T09:37:34;5.05;;;2.03;;
60494;SDS011;46342;49.046;11.920;2024-01-27T09:40:00;5.00;;;2.17;;
60494;SDS011;46342;49.046;11.920;2024-01-27T09:42:27;4.65;;;1.90;;
60494;SDS011;46342;49.046;11.920;2024-01-27T09:44:53;5.22;;;2.13;;
60494;SDS011;46342;49.046;11.920;2024-01-27T09:47:21;4.70;;;2.28;;
60494;SDS011;46342;49.046;11.920;2024-01-27T09:49:47;4.45;;;2.20;;
60494;SDS011;46342;49.046;11.920;2024-01-27T09:52:14;6.85;;;2.22;;
60494;SDS011;46342;49.046;11.920;2024-01-27T09:54:40;8.02;;;2.42;;
60494;SDS011;46342;49.046;11.920;2024-01-27T09:57:05;5.30;;;2.25;;
60494;SDS011;46342;49.046;11.920;2024-01-27T09:59:33;4.65;;;2.30;;
60494;SDS011;46342;49.046;11.920;2024-01-27T10:01:59;4.47;;;1.92;;
60494;SDS011;46342;49.046;11.920;2024-01-27T10:04:27;8.97;;;2.40;;
60494;SDS011;46342;49.046;11.920;2024-01-27T10:06:54;5.38;;;2.35;;
60494;SDS011;46342;49.046;11.920;2024-01-27T10:09:22;5.07;;;1.92;;
60494;SDS011;46342;49.046;11.920;2024-01-27T10:11:48;9.95;;;2.00;;
60494;SDS011;46342;49.046;11.920;2024-01-27T10:14:14;2.25;;;1.70;;
60494;SDS011;46342;49.046;11.920;2024-01-27T10:16:43;5.25;;;2.17;;
60494;SDS011;46342;49.046;11.920;2024-01-27T10:19:17;5.60;;;1.85;;
60494;SDS011;46342;49.046;11.920;2024-01-27T10:21:46;9.02;;;2.08;;
60494;SDS011;46342;49.046;11.920;2024-01-27T10:24:13;5.03;;;2.30;;
60494;SDS011;46342;49.046;11.920;2024-01-27T10:26:39;5.30;;;1.77;;
60494;SDS011;46342;49.046;11.920;2024-01-27T10:29:04;7.28;;;1.90;;
60494;SDS011;46342;49.046;11.920;2024-01-27T10:31:32;7.50;;;1.92;;
60494;SDS011;46342;49.046;11.920;2024-01-27T10:34:04;2.90;;;1.40;;
60494;SDS011;46342;49.046;11.920;2024-01-27T10:36:40;5.50;;;1.73;;
60494;SDS011;46342;49.046;11.920;2024-01-27T10:39:16;7.00;;;1.35;;
60494;SDS011;46342;49.046;11.920;2024-01-27T10:41:44;4.70;;;2.22;;
60494;SDS011;46342;49.046;11.920;2024-01-27T10:44:13;10.70;;;2.08;;
60494;SDS011;46342;49.046;11.920;2024-01-27T10:46:41;8.95;;;1.85;;
60494;SDS011;46342;49.046;11.920;2024-01-27T10:49:10;4.55;;;1.65;;
60494;SDS011;46342;49.046;11.920;2024-01-27T10:51:38;4.60;;;1.40;;
60494;SDS011;46342;49.046;11.920;2024-01-27T10:54:15;5.13;;;1.50;;
60494;SDS011;46342;49.046;11.920;2024-01-27T10:56:47;3.03;;;1.70;;
60494;SDS011;46342;49.046;11.920;2024-01-27T10:59:14;6.95;;;1.45;;
60494;SDS011;46342;49.046;11.920;2024-01-27T11:01:42;4.47;;;1.52;;
60494;SDS011;46342;49.046;11.920;2024-01-27T11:04:10;5.38;;;1.65;;
60494;SDS011;46342;49.046;11.920;2024-01-27T11:06:36;8.05;;;1.90;;
60494;SDS011;46342;49.046;11.920;2024-01-27T11:09:03;8.70;;;2.40;;
60494;SDS011;46342;49.046;11.920;2024-01-27T11:11:30;4.90;;;1.77;;
60494;SDS011;46342;49.046;11.920;2024-01-27T11:13:57;6.15;;;2.10;;
60494;SDS011;46342;49.046;11.920;2024-01-27T11:16:23;3.80;;;2.05;;
60494;SDS011;46342;49.046;11.920;2024-01-27T11:18:49;4.18;;;2.05;;
60494;SDS011;46342;49.046;11.920;2024-01-27T11:21:15;4.57;;;2.13;;
60494;SDS011;46342;49.046;11.920;2024-01-27T11:23:42;7.43;;;1.98;;
60494;SDS011;46342;49.046;11.920;2024-01-27T11:26:08;2.85;;;1.60;;
60494;SDS011;46342;49.046;11.920;2024-01-27T11:28:35;3.90;;;1.85;;
60494;SDS011;46342;49.046;11.920;2024-01-27T11:31:05;6.32;;;2.10;;
60494;SDS011;46342;49.046;11.920;2024-01-27T11:33:31;6.30;;;1.83;;
60494;SDS011;46342;49.046;11.920;2024-01-27T11:36:04;10.57;;;2.03;;
60494;SDS011;46342;49.046;11.920;2024-01-27T11:38:30;5.07;;;2.10;;
60494;SDS011;46342;49.046;11.920;2024-01-27T11:40:57;4.65;;;2.20;;
60494;SDS011;46342;49.046;11.920;2024-01-27T11:43:23;7.45;;;1.77;;
60494;SDS011;46342;49.046;11.920;2024-01-27T11:45:54;8.85;;;2.20;;
60494;SDS011;46342;49.046;11.920;2024-01-27T11:48:21;4.20;;;1.85;;
60494;SDS011;46342;49.046;11.920;2024-01-27T11:50:47;6.40;;;2.15;;
60494;SDS011;46342;49.046;11.920;2024-01-27T11:53:12;11.30;;;2.65;;
60494;SDS011;46342;49.046;11.920;2024-01-27T11:55:38;4.10;;;1.70;;
60494;SDS011;46342;49.046;11.920;2024-01-27T11:58:04;6.90;;;2.05;;
60494;SDS011;46342;49.046;11.920;2024-01-27T12:00:30;4.72;;;1.58;;
60494;SDS011;46342;49.046;11.920;2024-01-27T12:02:55;5.82;;;1.23;;
60494;SDS011;46342;49.046;11.920;2024-01-27T12:05:21;7.82;;;1.85;;
60494;SDS011;46342;49.046;11.920;2024-01-27T12:07:47;3.50;;;1.30;;
60494;SDS011;46342;49.046;11.920;2024-01-27T12:10:13;6.00;;;1.25;;
60494;SDS011;46342;49.046;11.920;2024-01-27T12:12:39;4.75;;;1.48;;
60494;SDS011;46342;49.046;11.920;2024-01-27T12:15:05;3.30;;;1.40;;
60494;SDS011;46342;49.046;11.920;2024-01-27T12:17:31;6.93;;;1.70;;
60494;SDS011;46342;49.046;11.920;2024-01-27T12:19:56;4.63;;;1.30;;
60494;SDS011;46342;49.046;11.920;2024-01-27T12:22:26;3.60;;;1.05;;
60494;SDS011;46342;49.046;11.920;2024-01-27T12:24:52;3.65;;;1.30;;
60494;SDS011;46342;49.046;11.920;2024-01-27T12:27:32;3.72;;;1.20;;
60494;SDS011;46342;49.046;11.920;2024-01-27T12:29:59;2.47;;;1.70;;
60494;SDS011;46342;49.046;11.920;2024-01-27T12:32:26;2.22;;;1.52;;
60494;SDS011;46342;49.046;11.920;2024-01-27T12:34:52;7.72;;;1.80;;
60494;SDS011;46342;49.046;11.920;2024-01-27T12:37:18;5.60;;;1.70;;
60494;SDS011;46342;49.046;11.920;2024-01-27T12:39:46;5.20;;;1.70;;
60494;SDS011;46342;49.046;11.920;2024-01-27T12:42:11;8.35;;;1.60;;
60494;SDS011;46342;49.046;11.920;2024-01-27T12:44:37;5.60;;;1.42;;
60494;SDS011;46342;49.046;11.920;2024-01-27T12:47:04;3.85;;;1.65;;
60494;SDS011;46342;49.046;11.920;2024-01-27T12:49:30;8.32;;;2.30;;
60494;SDS011;46342;49.046;11.920;2024-01-27T12:51:55;7.78;;;2.38;;
60494;SDS011;46342;49.046;11.920;2024-01-27T12:54:21;4.65;;;1.92;;
60494;SDS011;46342;49.046;11.920;2024-01-27T12:56:47;3.42;;;1.60;;
60494;SDS011;46342;49.046;11.920;2024-01-27T12:59:12;4.13;;;1.50;;
60494;SDS011;46342;49.046;11.920;2024-01-27T13:01:39;5.57;;;2.38;;
60494;SDS011;46342;49.046;11.920;2024-01-27T13:04:05;9.60;;;1.90;;
60494;SDS011;46342;49.046;11.920;2024-01-27T13:06:30;4.72;;;1.83;;
60494;SDS011;46342;49.046;11.920;2024-01-27T13:08:56;6.88;;;1.83;;
60494;SDS011;46342;49.046;11.920;2024-01-27T13:11:22;3.35;;;1.60;;
60494;SDS011;46342;49.046;11.920;2024-01-27T13:13:48;4.40;;;2.00;;
60494;SDS011;46342;49.046;11.920;2024-01-27T13:16:13;10.50;;;3.17;;
60494;SDS011;46342;49.046;11.920;2024-01-27T13:18:39;5.28;;;1.30;;
60494;SDS011;46342;49.046;11.920;2024-01-27T13:21:04;6.35;;;2.45;;
60494;SDS011;46342;49.046;11.920;2024-01-27T13:23:31;4.60;;;2.03;;
60494;SDS011;46342;49.046;11.920;2024-01-27T13:25:57;2.25;;;1.35;;
60494;SDS011;46342;49.046;11.920;2024-01-27T13:28:23;5.30;;;1.70;;
60494;SDS011;46342;49.046;11.920;2024-01-27T13:30:48;4.97;;;1.63;;
60494;SDS011;46342;49.046;11.920;2024-01-27T13:33:15;6.30;;;1.85;;
60494;SDS011;46342;49.046;11.920;2024-01-27T13:35:41;5.97;;;1.70;;
60494;SDS011;46342;49.046;11.920;2024-01-27T13:38:11;5.72;;;1.90;;
60494;SDS011;46342;49.046;11.920;2024-01-27T13:40:44;4.20;;;1.70;;
60494;SDS011;46342;49.046;11.920;2024-01-27T13:43:09;2.75;;;1.90;;
60494;SDS011;46342;49.046;11.920;2024-01-27T13:45:35;2.35;;;1.50;;
60494;SDS011;46342;49.046;11.920;2024-01-27T13:48:00;3.70;;;1.48;;
60494;SDS011;46342;49.046;11.920;2024-01-27T13:50:26;3.45;;;1.30;;
60494;SDS011;46342;49.046;11.920;2024-01-27T13:52:55;5.07;;;1.80;;
60494;SDS011;46342;49.046;11.920;2024-01-27T13:55:20;5.60;;;1.60;;
60494;SDS011;46342;49.046;11.920;2024-01-27T13:57:47;3.40;;;1.58;;
60494;SDS011;46342;49.046;11.920;2024-01-27T14:00:13;9.25;;;1.83;;
60494;SDS011;46342;49.046;11.920;2024-01-27T14:02:39;3.00;;;1.30;;
60494;SDS011;46342;49.046;11.920;2024-01-27T14:05:05;6.72;;;1.73;;
60494;SDS011;46342;49.046;11.920;2024-01-27T14:07:31;5.22;;;1.50;;
60494;SDS011;46342;49.046;11.920;2024-01-27T14:09:58;7.25;;;1.90;;
60494;SDS011;46342;49.046;11.920;2024-01-27T14:12:24;4.57;;;1.38;;
60494;SDS011;46342;49.046;11.920;2024-01-27T14:14:50;4.70;;;1.60;;
60494;SDS011;46342;49.046;11.920;2024-01-27T14:17:16;3.90;;;2.22;;
60494;SDS011;46342;49.046;11.920;2024-01-27T14:19:42;2.63;;;1.45;;
60494;SDS011;46342;49.046;11.920;2024-01-27T14:22:08;4.85;;;1.70;;
60494;SDS011;46342;49.046;11.920;2024-01-27T14:24:33;2.95;;;1.55;;
60494;SDS011;46342;49.046;11.920;2024-01-27T14:26:59;3.65;;;1.33;;
60494;SDS011;46342;49.046;11.920;2024-01-27T14:29:25;3.10;;;1.38;;
60494;SDS011;46342;49.046;11.920;2024-01-27T14:31:51;3.20;;;1.52;;